createdAt,value
2022-12-11T00:03:45.130Z,99825.14
2022-12-11T00:08:51.213Z,99817.40
2022-12-11T00:13:54.468Z,99813.84
2022-12-11T00:18:58.270Z,99812.01
2022-12-11T00:24:01.470Z,99808.00
2022-12-11T00:29:05.189Z,99803.42
2022-12-11T00:34:09.366Z,99805.77
2022-12-11T00:39:12.568Z,99806.44
2022-12-11T00:44:15.753Z,99816.48
2022-12-11T00:49:18.972Z,99810.75
2022-12-11T00:54:22.173Z,99810.09
2022-12-11T00:59:25.713Z,99811.10
2022-12-11T01:04:28.911Z,99819.42
2022-12-11T01:09:50.808Z,99819.09
2022-12-11T01:14:53.974Z,99811.27
2022-12-11T01:19:57.601Z,99802.31
2022-12-11T01:25:00.808Z,99801.64
2022-12-11T01:30:06.511Z,99797.13
2022-12-11T01:35:10.304Z,99787.15
2022-12-11T01:40:16.417Z,99789.23
2022-12-11T01:45:24.660Z,99793.90
2022-12-11T01:50:34.240Z,99802.15
2022-12-11T01:55:39.319Z,99804.54
2022-12-11T02:00:42.565Z,99797.21
2022-12-11T02:05:45.864Z,99792.86
2022-12-11T02:11:04.513Z,99786.83
2022-12-11T02:16:17.859Z,99784.48
2022-12-11T02:21:28.096Z,99779.52
2022-12-11T02:26:43.572Z,99777.39
2022-12-11T02:31:55.136Z,99776.14
2022-12-11T02:37:04.502Z,99782.86
2022-12-11T02:42:10.032Z,99782.94
2022-12-11T02:47:16.366Z,99772.08
2022-12-11T02:52:24.087Z,99762.33
2022-12-11T02:57:38.394Z,99754.37
2022-12-11T03:02:43.216Z,99757.60
2022-12-11T03:07:46.778Z,99752.77
2022-12-11T03:12:54.199Z,99749.91
2022-12-11T03:18:00.500Z,99750.86
2022-12-11T03:23:03.560Z,99750.80
2022-12-11T03:28:14.718Z,99750.64
2022-12-11T03:33:27.926Z,99746.36
2022-12-11T03:39:02.435Z,99738.33
2022-12-11T03:44:07.365Z,99741.84
2022-12-11T03:49:19.455Z,99730.41
2022-12-11T03:54:24.716Z,99728.52
2022-12-11T03:59:28.246Z,99732.60
2022-12-11T04:04:31.511Z,99723.98
2022-12-11T04:09:35.447Z,99723.36
2022-12-11T04:14:57.348Z,99725.27
2022-12-11T04:20:19.310Z,99728.19
2022-12-11T04:25:22.585Z,99718.90
2022-12-11T04:30:30.884Z,99718.81
2022-12-11T04:35:37.835Z,99717.59
2022-12-11T04:40:41.103Z,99719.17
2022-12-11T04:45:44.285Z,99723.83
2022-12-11T04:50:47.482Z,99724.59
2022-12-11T04:55:50.849Z,99724.55
2022-12-11T05:00:54.145Z,99724.33
2022-12-11T05:05:57.457Z,99723.81
2022-12-11T05:11:03.561Z,99714.98
2022-12-11T05:16:09.417Z,99706.73
2022-12-11T05:21:15.432Z,99708.10
2022-12-11T05:26:21.505Z,99706.97
2022-12-11T05:31:27.171Z,99708.08
2022-12-11T05:36:34.143Z,99704.70
2022-12-11T05:41:37.546Z,99705.29
2022-12-11T05:46:41.069Z,99704.05
2022-12-11T05:51:44.408Z,99708.63
2022-12-11T05:56:51.485Z,99713.25
2022-12-11T06:01:54.778Z,99721.29
2022-12-11T06:06:58.347Z,99719.73
2022-12-11T06:12:01.552Z,99721.28
2022-12-11T06:17:04.758Z,99714.83
2022-12-11T06:22:07.953Z,99706.15
2022-12-11T06:27:11.153Z,99705.94
2022-12-11T06:32:14.298Z,99704.25
2022-12-11T06:37:17.943Z,99709.30
2022-12-11T06:42:21.254Z,99710.20
2022-12-11T06:47:24.723Z,99707.02
2022-12-11T06:52:28.673Z,99704.92
2022-12-11T06:57:31.948Z,99701.09
2022-12-11T07:02:35.296Z,99698.43
2022-12-11T07:07:38.789Z,99703.32
2022-12-11T07:12:42.063Z,99700.91
2022-12-11T07:17:45.260Z,99694.50
2022-12-11T07:22:48.508Z,99689.66
2022-12-11T07:27:51.726Z,99682.92
2022-12-11T07:32:54.962Z,99678.20
2022-12-11T07:38:00.149Z,99679.02
2022-12-11T07:43:03.478Z,99676.48
2022-12-11T07:48:06.668Z,99677.08
2022-12-11T07:53:09.812Z,99680.73
2022-12-11T07:58:13.044Z,99678.20
2022-12-11T08:03:27.005Z,99685.50
2022-12-11T08:08:30.776Z,99687.27
2022-12-11T08:13:34.420Z,99683.73
2022-12-11T08:18:39.061Z,99686.23
2022-12-11T08:23:43.066Z,99677.45
2022-12-11T08:28:47.592Z,99675.71
2022-12-11T08:33:52.307Z,99683.38
2022-12-11T08:38:58.285Z,99679.42
2022-12-11T08:44:02.225Z,99671.10
2022-12-11T08:49:05.643Z,99668.31
2022-12-11T08:54:11.178Z,99662.09
2022-12-11T08:59:14.611Z,99656.39
2022-12-11T09:04:18.099Z,99649.63
2022-12-11T09:09:21.447Z,99653.27
2022-12-11T09:14:24.792Z,99649.98
2022-12-11T09:19:32.442Z,99645.02
2022-12-11T09:24:41.910Z,99640.92
2022-12-11T09:29:45.561Z,99628.05
2022-12-11T09:34:51.493Z,99625.77
2022-12-11T09:39:54.712Z,99608.08
2022-12-11T09:45:03.211Z,99603.11
2022-12-11T09:50:09.862Z,99599.05
2022-12-11T09:55:20.425Z,99595.06
2022-12-11T10:00:46.811Z,99583.68
2022-12-11T10:06:21.495Z,99584.41
2022-12-11T10:11:37.452Z,99572.73
2022-12-11T10:16:51.212Z,99572.34
2022-12-11T10:21:56.399Z,99561.33
2022-12-11T10:27:10.530Z,99561.02
2022-12-11T10:32:25.363Z,99557.11
2022-12-11T10:37:29.145Z,99555.95
2022-12-11T10:42:32.350Z,99540.05
2022-12-11T10:47:35.631Z,99541.95
2022-12-11T10:52:45.381Z,99547.61
2022-12-11T10:58:04.352Z,99536.27
2022-12-11T11:03:28.713Z,99530.13
2022-12-11T11:08:47.812Z,99524.10
2022-12-11T11:13:51.918Z,99513.48
2022-12-11T11:18:58.375Z,99501.36
2022-12-11T11:24:01.613Z,99497.05
2022-12-11T11:29:05.559Z,99500.05
2022-12-11T11:34:16.860Z,99491.52
2022-12-11T11:39:33.586Z,99490.86
2022-12-11T11:44:50.472Z,99495.64
2022-12-11T11:49:57.979Z,99483.36
2022-12-11T11:55:06.717Z,99477.08
2022-12-11T12:00:21.107Z,99475.77
2022-12-11T12:05:36.420Z,99473.04
2022-12-11T12:11:05.160Z,99473.97
2022-12-11T12:16:50.919Z,99467.71
2022-12-11T12:21:50.929Z,99461.20
2022-12-11T12:27:17.602Z,99452.30
2022-12-11T12:32:44.981Z,99452.27
2022-12-11T12:38:00.366Z,99449.66
2022-12-11T12:43:29.117Z,99445.01
2022-12-11T12:48:33.254Z,99439.81
2022-12-11T12:53:37.304Z,99430.08
2022-12-11T12:58:44.611Z,99425.24
2022-12-11T13:03:59.292Z,99416.36
2022-12-11T13:09:26.473Z,99411.46
2022-12-11T13:14:30.602Z,99409.04
2022-12-11T13:19:40.640Z,99404.21
2022-12-11T13:24:46.905Z,99399.67
2022-12-11T13:29:50.044Z,99404.30
2022-12-11T13:34:59.409Z,99397.89
2022-12-11T13:40:08.534Z,99395.02
2022-12-11T13:45:26.559Z,99394.04
2022-12-11T13:50:33.636Z,99392.73
2022-12-11T13:55:36.806Z,99387.12
2022-12-11T14:00:40.545Z,99383.71
2022-12-11T14:05:43.804Z,99379.05
2022-12-11T14:10:55.241Z,99376.98
2022-12-11T14:15:58.616Z,99374.83
2022-12-11T14:21:05.540Z,99363.17
2022-12-11T14:26:22.260Z,99352.52
2022-12-11T14:31:31.147Z,99345.73
2022-12-11T14:36:36.684Z,99339.30
2022-12-11T14:41:52.104Z,99338.41
2022-12-11T14:47:01.164Z,99332.61
2022-12-11T14:52:05.487Z,99330.77
2022-12-11T14:57:14.657Z,99316.46
2022-12-11T15:02:26.631Z,99313.54
2022-12-11T15:07:30.187Z,99309.75
2022-12-11T15:12:34.329Z,99306.05
2022-12-11T15:17:37.802Z,99304.45
2022-12-11T15:22:47.498Z,99304.75
2022-12-11T15:27:58.781Z,99297.73
2022-12-11T15:33:19.325Z,99295.21
2022-12-11T15:38:42.334Z,99288.43
2022-12-11T15:43:46.412Z,99283.20
2022-12-11T15:48:50.929Z,99281.38
2022-12-11T15:53:54.122Z,99276.71
2022-12-11T15:59:04.734Z,99274.56
2022-12-11T16:04:07.863Z,99271.50
2022-12-11T16:09:11.094Z,99265.21
2022-12-11T16:14:14.331Z,99270.19
2022-12-11T16:19:18.055Z,99260.34
2022-12-11T16:24:21.349Z,99257.13
2022-12-11T16:29:24.717Z,99253.66
2022-12-11T16:34:28.573Z,99246.20
2022-12-11T16:39:31.851Z,99236.10
2022-12-11T16:44:38.351Z,99234.50
2022-12-11T16:49:44.478Z,99239.73
2022-12-11T16:54:47.728Z,99242.78
2022-12-11T16:59:51.047Z,99244.22
2022-12-11T17:04:54.399Z,99230.52
2022-12-11T17:09:57.599Z,99225.96
2022-12-11T17:15:00.797Z,99224.46
2022-12-11T17:20:04.557Z,99228.63
2022-12-11T17:25:08.103Z,99226.71
2022-12-11T17:30:12.042Z,99226.39
2022-12-11T17:35:15.311Z,99225.65
2022-12-11T17:40:19.133Z,99228.60
2022-12-11T17:45:22.851Z,99226.70
2022-12-11T17:50:26.341Z,99224.16
2022-12-11T17:55:30.909Z,99224.30
2022-12-11T18:00:34.189Z,99216.21
2022-12-11T18:05:46.565Z,99211.11
2022-12-11T18:10:49.933Z,99212.92
2022-12-11T18:16:09.219Z,99212.28
2022-12-11T18:21:15.104Z,99203.50
2022-12-11T18:26:20.181Z,99204.98
2022-12-11T18:31:24.344Z,99205.08
2022-12-11T18:36:27.775Z,99199.48
2022-12-11T18:41:31.129Z,99202.37
2022-12-11T18:46:34.356Z,99198.23
2022-12-11T18:51:37.657Z,99194.11
2022-12-11T18:56:42.168Z,99192.63
2022-12-11T19:01:45.430Z,99196.34
2022-12-11T19:06:48.988Z,99199.40
2022-12-11T19:11:52.453Z,99195.80
2022-12-11T19:16:56.328Z,99191.52
2022-12-11T19:21:59.625Z,99187.50
2022-12-11T19:27:06.197Z,99179.77
2022-12-11T19:32:12.009Z,99172.95
2022-12-11T19:37:15.410Z,99169.27
2022-12-11T19:42:19.180Z,99170.30
2022-12-11T19:47:22.330Z,99165.99
2022-12-11T19:52:25.515Z,99159.91
2022-12-11T19:57:28.761Z,99160.83
2022-12-11T20:02:32.099Z,99171.36
2022-12-11T20:07:35.529Z,99169.80
2022-12-11T20:12:38.754Z,99164.71
2022-12-11T20:17:44.905Z,99159.15
2022-12-11T20:22:49.451Z,99154.44
2022-12-11T20:27:55.636Z,99149.04
2022-12-11T20:32:59.408Z,99148.53
2022-12-11T20:38:02.943Z,99146.58
2022-12-11T20:43:06.414Z,99140.64
2022-12-11T20:48:09.683Z,99133.70
2022-12-11T20:53:13.015Z,99130.13
2022-12-11T20:58:16.269Z,99127.37
2022-12-11T21:03:19.810Z,99125.92
2022-12-11T21:08:23.031Z,99123.02
2022-12-11T21:13:26.346Z,99118.79
2022-12-11T21:18:29.701Z,99110.84
2022-12-11T21:23:33.222Z,99099.27
2022-12-11T21:28:36.645Z,99094.17
2022-12-11T21:33:40.167Z,99093.98
2022-12-11T21:38:44.913Z,99086.36
2022-12-11T21:44:56.615Z,99078.38
2022-12-11T21:49:16.352Z,99070.10
2022-12-11T21:54:20.119Z,99061.91
2022-12-11T21:59:23.797Z,99057.09
2022-12-11T22:04:27.838Z,99047.84
2022-12-11T22:09:31.214Z,99039.42
2022-12-11T22:14:36.325Z,99040.41
2022-12-11T22:19:39.602Z,99038.46
2022-12-11T22:24:43.147Z,99037.55
2022-12-11T22:29:46.273Z,99034.67
2022-12-11T22:34:49.947Z,99035.89
2022-12-11T22:39:53.345Z,99033.72
2022-12-11T22:44:56.554Z,99023.14
2022-12-11T22:49:59.776Z,99019.48
2022-12-11T22:55:03.267Z,99016.19
2022-12-11T23:00:10.923Z,99015.05
2022-12-11T23:05:14.711Z,99015.66
2022-12-11T23:10:18.155Z,99008.40
2022-12-11T23:15:21.451Z,99005.60
2022-12-11T23:20:25.862Z,99006.04
2022-12-11T23:25:29.079Z,99002.88
2022-12-11T23:30:32.283Z,99001.64
2022-12-11T23:35:35.874Z,99000.20
2022-12-11T23:40:39.652Z,98999.98
2022-12-11T23:45:46.905Z,99001.06
2022-12-11T23:50:50.265Z,99000.25
2022-12-11T23:55:53.567Z,99000.59
